createdAt,value
2022-08-09T00:00:19.362Z,0.90
2022-08-09T00:02:49.664Z,0.70
2022-08-09T00:06:17.389Z,0.70
2022-08-09T00:08:03.232Z,0.85
2022-08-09T00:10:30.585Z,1.08
2022-08-09T00:12:56.061Z,1.10
2022-08-09T00:15:26.335Z,0.60
2022-08-09T00:18:06.309Z,0.70
2022-08-09T00:20:36.569Z,0.80
2022-08-09T00:23:08.413Z,0.80
2022-08-09T00:25:51.714Z,1.75
2022-08-09T00:28:18.438Z,0.70
2022-08-09T00:30:44.335Z,0.85
2022-08-09T00:33:11.373Z,0.80
2022-08-09T00:35:42.954Z,0.80
2022-08-09T00:38:11.763Z,0.65
2022-08-09T00:40:38.700Z,0.82
2022-08-09T00:44:14.659Z,0.65
2022-08-09T00:46:04.767Z,0.90
2022-08-09T00:48:30.557Z,0.80
2022-08-09T00:51:00.234Z,0.90
2022-08-09T00:53:25.988Z,1.10
2022-08-09T00:56:04.459Z,0.90
2022-08-09T00:58:33.630Z,0.88
2022-08-09T01:01:01.282Z,1.00
2022-08-09T01:03:36.417Z,0.90
2022-08-09T01:06:17.927Z,0.60
2022-08-09T01:08:52.776Z,0.93
2022-08-09T01:11:38.963Z,0.90
2022-08-09T01:14:16.960Z,0.82
2022-08-09T01:16:47.480Z,0.73
2022-08-09T01:22:21.849Z,0.70
2022-08-09T01:24:59.397Z,0.82
2022-08-09T01:27:26.766Z,0.80
2022-08-09T01:29:56.862Z,0.80
2022-08-09T01:32:30.995Z,0.70
2022-08-09T01:35:18.228Z,0.80
2022-08-09T01:38:07.748Z,0.73
2022-08-09T01:40:35.652Z,0.70
2022-08-09T01:43:02.309Z,1.08
2022-08-09T01:45:29.184Z,0.82
2022-08-09T01:47:56.088Z,0.77
2022-08-09T01:50:29.931Z,0.70
2022-08-09T01:53:03.100Z,0.90
2022-08-09T01:55:46.691Z,0.82
2022-08-09T01:58:13.228Z,0.65
2022-08-09T02:00:41.144Z,0.70
2022-08-09T02:03:13.692Z,0.90
2022-08-09T02:06:04.124Z,0.70
2022-08-09T02:08:35.943Z,0.60
2022-08-09T02:11:17.062Z,0.60
2022-08-09T02:13:43.978Z,0.77
2022-08-09T02:16:33.906Z,0.80
2022-08-09T02:19:01.062Z,0.60
2022-08-09T02:21:28.800Z,0.90
2022-08-09T02:24:00.051Z,0.80
2022-08-09T02:26:29.234Z,0.70
2022-08-09T02:28:59.526Z,0.65
2022-08-09T02:31:29.976Z,0.90
2022-08-09T02:34:13.363Z,0.82
2022-08-09T02:36:52.528Z,0.80
2022-08-09T02:39:39.688Z,0.80
2022-08-09T02:42:09.574Z,0.85
2022-08-09T02:44:36.921Z,0.63
2022-08-09T02:47:06.131Z,0.82
2022-08-09T02:49:38.729Z,0.80
2022-08-09T02:52:08.390Z,0.82
2022-08-09T02:54:34.600Z,0.65
2022-08-09T02:57:13.542Z,0.75
2022-08-09T02:59:40.719Z,0.70
2022-08-09T03:02:26.903Z,0.88
2022-08-09T03:04:53.720Z,0.80
2022-08-09T03:07:19.660Z,0.68
2022-08-09T03:09:54.195Z,0.90
2022-08-09T03:12:23.369Z,0.90
2022-08-09T03:14:49.714Z,0.60
2022-08-09T03:17:16.513Z,0.70
2022-08-09T03:19:52.183Z,0.60
2022-08-09T03:22:30.392Z,0.88
2022-08-09T03:25:06.670Z,0.82
2022-08-09T03:27:45.807Z,0.80
2022-08-09T03:30:12.546Z,0.80
2022-08-09T03:32:39.412Z,0.77
2022-08-09T03:35:24.289Z,0.80
2022-08-09T03:37:56.663Z,0.60
2022-08-09T03:40:24.523Z,0.77
2022-08-09T03:42:50.306Z,0.80
2022-08-09T03:45:15.974Z,0.85
2022-08-09T03:48:02.040Z,0.80
2022-08-09T03:50:32.059Z,0.70
2022-08-09T03:53:00.670Z,0.80
2022-08-09T03:55:30.101Z,0.98
2022-08-09T03:58:06.417Z,0.70
2022-08-09T04:03:02.170Z,0.70
2022-08-09T04:05:28.298Z,0.65
2022-08-09T04:07:57.134Z,0.93
2022-08-09T04:10:28.335Z,0.60
2022-08-09T04:12:56.400Z,0.80
2022-08-09T04:15:39.180Z,0.68
2022-08-09T04:18:09.409Z,0.70
2022-08-09T04:20:42.246Z,0.63
2022-08-09T04:23:16.807Z,0.68
2022-08-09T04:25:43.478Z,0.77
2022-08-09T04:28:08.957Z,0.88
2022-08-09T04:30:37.897Z,0.90
2022-08-09T04:33:10.434Z,0.77
2022-08-09T04:35:39.120Z,0.88
2022-08-09T04:38:07.868Z,0.70
2022-08-09T04:40:56.456Z,0.80
2022-08-09T04:43:22.776Z,0.90
2022-08-09T04:45:53.690Z,0.80
2022-08-09T04:48:19.809Z,0.50
2022-08-09T04:50:45.285Z,1.10
2022-08-09T04:53:15.368Z,0.65
2022-08-09T04:55:58.467Z,1.08
2022-08-09T04:58:25.722Z,0.60
2022-08-09T05:00:51.370Z,0.80
2022-08-09T05:03:40.920Z,0.70
2022-08-09T05:06:07.121Z,1.00
2022-08-09T05:08:34.519Z,0.73
2022-08-09T05:11:01.057Z,0.80
2022-08-09T05:13:27.870Z,0.70
2022-08-09T05:15:56.668Z,0.80
2022-08-09T05:18:50.675Z,0.80
2022-08-09T05:21:23.187Z,1.15
2022-08-09T05:23:55.654Z,0.88
2022-08-09T05:26:36.956Z,1.00
2022-08-09T05:29:17.260Z,0.90
2022-08-09T05:31:45.925Z,0.85
2022-08-09T05:34:16.948Z,0.88
2022-08-09T05:36:43.225Z,0.82
2022-08-09T05:39:08.991Z,0.77
2022-08-09T05:41:34.864Z,0.70
2022-08-09T05:44:00.341Z,0.85
2022-08-09T05:46:25.810Z,1.02
2022-08-09T05:48:58.854Z,0.95
2022-08-09T05:51:42.996Z,1.30
2022-08-09T05:54:12.015Z,0.90
2022-08-09T05:56:38.041Z,0.95
2022-08-09T05:59:21.092Z,1.23
2022-08-09T06:01:46.930Z,1.00
2022-08-09T06:04:13.911Z,1.08
2022-08-09T06:06:43.808Z,1.08
2022-08-09T06:09:54.880Z,1.00
2022-08-09T06:11:58.045Z,1.10
2022-08-09T06:14:23.730Z,1.10
2022-08-09T06:16:52.306Z,0.88
2022-08-09T06:19:18.079Z,1.10
2022-08-09T06:21:50.359Z,1.10
2022-08-09T06:24:17.144Z,1.00
2022-08-09T06:26:43.702Z,1.05
2022-08-09T06:29:14.974Z,1.15
2022-08-09T06:32:17.174Z,0.98
2022-08-09T06:34:29.740Z,1.20
2022-08-09T06:36:59.234Z,0.85
2022-08-09T06:39:25.571Z,1.20
2022-08-09T06:42:11.329Z,0.95
2022-08-09T06:44:37.117Z,1.05
2022-08-09T06:47:03.400Z,0.70
2022-08-09T06:50:11.209Z,1.13
2022-08-09T06:52:15.922Z,0.90
2022-08-09T06:54:41.610Z,0.90
2022-08-09T06:57:08.251Z,0.80
2022-08-09T07:00:56.314Z,0.82
2022-08-09T07:02:19.750Z,0.80
2022-08-09T07:04:46.821Z,1.10
2022-08-09T07:07:12.371Z,1.00
2022-08-09T07:10:10.417Z,0.70
2022-08-09T07:12:43.492Z,1.20
2022-08-09T07:16:39.286Z,0.90
2022-08-09T07:18:01.910Z,0.65
2022-08-09T07:20:28.069Z,0.95
2022-08-09T07:22:54.341Z,0.90
2022-08-09T07:25:20.106Z,1.00
2022-08-09T07:27:53.643Z,0.90
2022-08-09T07:30:21.658Z,0.80
2022-08-09T07:32:51.543Z,0.88
2022-08-09T07:35:17.236Z,0.90
2022-08-09T07:37:45.382Z,0.80
2022-08-09T07:40:14.124Z,1.13
2022-08-09T07:42:46.949Z,1.08
2022-08-09T07:45:23.590Z,1.10
2022-08-09T07:48:04.072Z,1.00
2022-08-09T07:50:34.790Z,1.15
2022-08-09T07:53:03.088Z,0.88
2022-08-09T07:55:30.454Z,0.90
2022-08-09T07:58:08.694Z,1.08
2022-08-09T08:00:58.993Z,0.98
2022-08-09T08:03:24.451Z,1.08
2022-08-09T08:05:53.857Z,1.13
2022-08-09T08:09:02.144Z,1.35
2022-08-09T08:12:10.476Z,1.05
2022-08-09T08:13:57.129Z,1.00
2022-08-09T08:16:32.060Z,1.10
2022-08-09T08:18:58.034Z,1.17
2022-08-09T08:21:24.050Z,1.15
2022-08-09T08:23:55.567Z,1.27
2022-08-09T08:26:26.578Z,1.13
2022-08-09T08:29:07.505Z,1.20
2022-08-09T08:32:02.989Z,1.23
2022-08-09T08:34:20.928Z,0.82
2022-08-09T08:36:51.005Z,1.02
2022-08-09T08:39:17.560Z,1.10
2022-08-09T08:41:51.548Z,0.90
2022-08-09T08:44:26.891Z,0.98
2022-08-09T08:46:59.689Z,1.13
2022-08-09T08:52:10.232Z,0.82
2022-08-09T08:54:36.677Z,1.10
2022-08-09T08:57:03.060Z,1.10
2022-08-09T08:59:44.597Z,1.00
2022-08-09T09:02:30.963Z,1.20
2022-08-09T09:04:58.758Z,1.00
2022-08-09T09:07:32.378Z,1.70
2022-08-09T09:10:08.989Z,1.00
2022-08-09T09:12:35.703Z,0.95
2022-08-09T09:15:02.038Z,1.33
2022-08-09T09:17:48.315Z,1.48
2022-08-09T09:20:15.486Z,1.30
2022-08-09T09:23:01.952Z,1.30
2022-08-09T09:26:02.034Z,1.17
2022-08-09T09:28:39.113Z,1.33
2022-08-09T09:31:05.158Z,1.10
2022-08-09T09:33:44.362Z,0.95
2022-08-09T09:36:20.463Z,1.10
2022-08-09T09:38:48.052Z,1.08
2022-08-09T09:41:33.177Z,1.17
2022-08-09T09:44:25.335Z,1.80
2022-08-09T09:46:55.478Z,1.20
2022-08-09T09:49:23.580Z,1.13
2022-08-09T09:52:16.487Z,1.00
2022-08-09T09:55:16.494Z,1.10
2022-08-09T09:58:01.150Z,0.95
2022-08-09T10:00:30.080Z,1.10
2022-08-09T10:02:58.471Z,1.48
2022-08-09T10:05:27.146Z,1.05
2022-08-09T10:08:27.198Z,1.40
2022-08-09T10:10:54.022Z,1.08
2022-08-09T10:13:43.483Z,1.05
2022-08-09T10:16:54.983Z,1.00
2022-08-09T10:18:54.426Z,0.95
2022-08-09T10:21:21.661Z,1.20
2022-08-09T10:23:47.645Z,1.48
2022-08-09T10:26:16.925Z,1.13
2022-08-09T10:28:49.040Z,1.30
2022-08-09T10:34:32.754Z,1.23
2022-08-09T10:36:59.001Z,1.63
2022-08-09T10:39:26.902Z,1.30
2022-08-09T10:41:54.132Z,1.38
2022-08-09T10:44:22.177Z,2.10
2022-08-09T10:46:57.441Z,1.67
2022-08-09T10:49:50.543Z,1.58
2022-08-09T10:52:35.158Z,1.30
2022-08-09T10:55:18.291Z,1.92
2022-08-09T10:57:43.818Z,1.38
2022-08-09T11:00:34.213Z,1.83
2022-08-09T11:03:16.282Z,1.60
2022-08-09T11:06:06.869Z,1.30
2022-08-09T11:08:47.186Z,1.40
2022-08-09T11:11:13.441Z,1.70
2022-08-09T11:13:50.742Z,1.40
2022-08-09T11:16:37.342Z,1.40
2022-08-09T11:19:09.404Z,1.60
2022-08-09T11:21:55.086Z,1.67
2022-08-09T11:24:51.142Z,1.30
2022-08-09T11:28:07.963Z,1.58
2022-08-09T11:33:18.705Z,1.55
2022-08-09T11:35:50.168Z,1.38
2022-08-09T11:40:55.316Z,1.50
2022-08-09T11:43:38.913Z,1.38
2022-08-09T11:46:05.003Z,1.70
2022-08-09T11:48:32.842Z,1.42
2022-08-09T11:52:57.023Z,1.55
2022-08-09T11:54:13.478Z,1.50
2022-08-09T11:56:42.419Z,1.40
2022-08-09T11:59:24.128Z,1.40
2022-08-09T12:02:35.167Z,1.50
2022-08-09T12:04:41.950Z,1.27
2022-08-09T12:07:08.209Z,1.55
2022-08-09T12:09:35.190Z,1.60
2022-08-09T12:12:05.175Z,1.20
2022-08-09T12:14:40.641Z,1.70
2022-08-09T12:17:27.989Z,1.65
2022-08-09T12:20:16.346Z,1.98
2022-08-09T12:22:45.496Z,1.67
2022-08-09T12:25:16.876Z,2.13
2022-08-09T12:29:14.152Z,3.90
2022-08-09T12:30:36.731Z,2.42
2022-08-09T12:33:04.442Z,2.28
2022-08-09T12:35:32.575Z,2.20
2022-08-09T12:38:29.587Z,1.73
2022-08-09T12:41:03.635Z,1.67
2022-08-09T12:44:05.499Z,1.75
2022-08-09T12:46:16.810Z,1.70
2022-08-09T12:48:42.378Z,1.73
2022-08-09T12:51:09.989Z,1.88
2022-08-09T12:53:38.719Z,1.80
2022-08-09T12:56:44.258Z,1.80
2022-08-09T13:01:49.078Z,2.25
2022-08-09T13:04:33.215Z,1.85
2022-08-09T13:07:10.912Z,2.40
2022-08-09T13:09:38.328Z,1.60
2022-08-09T13:12:07.565Z,1.75
2022-08-09T13:14:42.230Z,1.90
2022-08-09T13:17:16.150Z,2.20
2022-08-09T13:20:10.070Z,1.80
2022-08-09T13:22:36.587Z,1.90
2022-08-09T13:25:18.187Z,1.90
2022-08-09T13:27:54.884Z,1.92
2022-08-09T13:30:50.035Z,1.60
2022-08-09T13:33:11.710Z,1.73
2022-08-09T13:36:24.548Z,1.48
2022-08-09T13:38:54.717Z,2.03
2022-08-09T13:41:46.068Z,1.80
2022-08-09T13:43:54.225Z,1.75
2022-08-09T13:47:16.593Z,1.90
2022-08-09T13:49:05.812Z,1.70
2022-08-09T13:51:43.749Z,2.00
2022-08-09T13:54:26.646Z,1.80
2022-08-09T13:56:55.755Z,1.92
2022-08-09T13:59:25.168Z,1.73
2022-08-09T14:02:01.079Z,1.88
2022-08-09T14:04:28.099Z,1.75
2022-08-09T14:06:56.522Z,1.55
2022-08-09T14:09:22.227Z,1.42
2022-08-09T14:11:48.141Z,1.55
2022-08-09T14:14:22.680Z,1.60
2022-08-09T14:16:50.731Z,1.70
2022-08-09T14:19:16.695Z,1.80
2022-08-09T14:21:46.102Z,1.45
2022-08-09T14:24:22.071Z,1.40
2022-08-09T14:26:57.527Z,1.75
2022-08-09T14:29:25.450Z,2.00
2022-08-09T14:32:11.103Z,1.65
2022-08-09T14:34:41.209Z,1.80
2022-08-09T14:37:07.829Z,1.85
2022-08-09T14:39:45.303Z,1.83
2022-08-09T14:42:13.331Z,1.90
2022-08-09T14:44:59.616Z,1.40
2022-08-09T14:47:39.906Z,1.58
2022-08-09T14:50:11.639Z,1.60
2022-08-09T14:52:41.498Z,1.55
2022-08-09T14:55:08.217Z,1.42
2022-08-09T14:57:43.642Z,1.98
2022-08-09T15:00:10.014Z,1.70
2022-08-09T15:02:35.689Z,4.22
2022-08-09T15:05:06.140Z,2.58
2022-08-09T15:07:35.282Z,2.15
2022-08-09T15:10:10.741Z,2.50
2022-08-09T15:12:39.471Z,3.35
2022-08-09T15:15:10.828Z,3.17
2022-08-09T15:17:41.861Z,3.33
2022-08-09T15:20:08.729Z,3.42
2022-08-09T15:22:46.394Z,3.10
2022-08-09T15:25:12.709Z,2.80
2022-08-09T15:27:47.862Z,2.75
2022-08-09T15:30:56.374Z,2.70
2022-08-09T15:33:07.437Z,2.67
2022-08-09T15:35:44.036Z,3.42
2022-08-09T15:38:12.116Z,2.67
2022-08-09T15:40:37.936Z,2.15
2022-08-09T15:43:09.684Z,2.78
2022-08-09T15:46:07.576Z,2.15
2022-08-09T15:48:29.061Z,2.22
2022-08-09T15:50:56.809Z,2.30
2022-08-09T15:54:05.305Z,2.60
2022-08-09T15:56:21.389Z,2.92
2022-08-09T15:58:54.228Z,2.88
2022-08-09T16:01:20.060Z,2.30
2022-08-09T16:03:45.669Z,2.33
2022-08-09T16:06:31.394Z,2.65
2022-08-09T16:09:04.757Z,2.45
2022-08-09T16:11:32.952Z,2.13
2022-08-09T16:14:03.759Z,2.30
2022-08-09T16:16:31.854Z,2.05
2022-08-09T16:18:57.645Z,2.80
2022-08-09T16:21:25.084Z,2.05
2022-08-09T16:23:55.741Z,2.50
2022-08-09T16:26:34.435Z,2.83
2022-08-09T16:29:11.394Z,2.10
2022-08-09T16:32:19.422Z,2.17
2022-08-09T16:34:24.626Z,2.42
2022-08-09T16:36:50.161Z,2.10
2022-08-09T16:39:15.767Z,2.00
2022-08-09T16:42:04.075Z,2.00
2022-08-09T16:44:28.825Z,1.63
2022-08-09T16:47:04.232Z,1.88
2022-08-09T16:50:31.957Z,2.22
2022-08-09T16:52:28.338Z,1.92
2022-08-09T16:54:53.832Z,2.30
2022-08-09T16:57:19.431Z,1.80
2022-08-09T16:59:57.315Z,1.88
2022-08-09T17:02:23.685Z,2.00
2022-08-09T17:04:51.144Z,1.58
2022-08-09T17:08:47.089Z,1.63
2022-08-09T17:10:04.904Z,1.80
2022-08-09T17:12:31.032Z,1.77
2022-08-09T17:14:58.266Z,1.80
2022-08-09T17:17:27.471Z,2.20
2022-08-09T17:20:29.093Z,1.73
2022-08-09T17:22:50.293Z,1.92
2022-08-09T17:25:17.921Z,2.55
2022-08-09T17:27:48.726Z,1.92
2022-08-09T17:30:15.261Z,1.90
2022-08-09T17:32:46.380Z,1.90
2022-08-09T17:35:12.893Z,1.70
2022-08-09T17:38:10.106Z,1.73
2022-08-09T17:40:25.969Z,2.10
2022-08-09T17:42:55.553Z,1.73
2022-08-09T17:45:45.516Z,1.90
2022-08-09T17:48:12.928Z,1.95
2022-08-09T17:50:41.061Z,1.52
2022-08-09T17:53:22.575Z,1.40
2022-08-09T17:55:50.225Z,1.52
2022-08-09T17:58:18.035Z,1.55
2022-08-09T18:00:48.163Z,1.92
2022-08-09T18:03:14.081Z,1.70
2022-08-09T18:05:43.825Z,1.73
2022-08-09T18:08:11.107Z,1.75
2022-08-09T18:10:38.789Z,1.63
2022-08-09T18:13:53.517Z,1.85
2022-08-09T18:16:07.410Z,1.80
2022-08-09T18:18:35.804Z,1.83
2022-08-09T18:21:21.423Z,1.50
2022-08-09T18:24:12.385Z,2.05
2022-08-09T18:26:35.694Z,1.48
2022-08-09T18:30:42.423Z,1.70
2022-08-09T18:31:55.254Z,1.65
2022-08-09T18:34:21.549Z,1.35
2022-08-09T18:36:49.843Z,1.45
2022-08-09T18:39:16.837Z,1.70
2022-08-09T18:41:52.600Z,1.55
2022-08-09T18:44:19.492Z,1.40
2022-08-09T18:47:07.794Z,2.08
2022-08-09T18:49:41.644Z,1.67
2022-08-09T18:52:12.158Z,1.52
2022-08-09T18:54:38.296Z,1.88
2022-08-09T18:57:05.851Z,1.52
2022-08-09T18:59:37.322Z,1.42
2022-08-09T19:02:14.891Z,1.67
2022-08-09T19:04:40.659Z,1.60
2022-08-09T19:07:13.637Z,1.35
2022-08-09T19:10:17.386Z,1.40
2022-08-09T19:12:28.246Z,1.88
2022-08-09T19:14:54.486Z,1.20
2022-08-09T19:17:20.612Z,1.65
2022-08-09T19:19:47.009Z,1.60
2022-08-09T19:22:12.922Z,1.40
2022-08-09T19:25:08.856Z,1.52
2022-08-09T19:27:28.645Z,1.45
2022-08-09T19:30:21.469Z,1.40
2022-08-09T19:32:40.002Z,1.42
2022-08-09T19:35:05.807Z,1.65
2022-08-09T19:37:52.736Z,1.42
2022-08-09T19:40:19.386Z,1.40
2022-08-09T19:42:47.302Z,1.30
2022-08-09T19:45:15.137Z,1.60
2022-08-09T19:47:41.105Z,1.40
2022-08-09T19:50:50.144Z,1.48
2022-08-09T19:52:52.464Z,1.50
2022-08-09T19:55:19.450Z,1.45
2022-08-09T19:57:45.161Z,1.23
2022-08-09T20:00:11.057Z,1.30
2022-08-09T20:04:12.549Z,1.50
2022-08-09T20:05:25.328Z,1.20
2022-08-09T20:08:00.139Z,1.55
2022-08-09T20:10:27.899Z,1.42
2022-08-09T20:13:01.420Z,1.55
2022-08-09T20:16:35.160Z,1.40
2022-08-09T20:18:12.536Z,1.58
2022-08-09T20:20:39.807Z,1.30
2022-08-09T20:23:07.663Z,1.25
2022-08-09T20:25:51.460Z,1.55
2022-08-09T20:28:24.290Z,1.30
2022-08-09T20:30:57.568Z,1.55
2022-08-09T20:33:24.915Z,1.77
2022-08-09T20:35:52.487Z,1.35
2022-08-09T20:38:20.584Z,1.40
2022-08-09T20:40:55.777Z,1.20
2022-08-09T20:43:24.791Z,1.20
2022-08-09T20:45:59.800Z,1.30
2022-08-09T20:48:28.925Z,1.50
2022-08-09T20:50:57.960Z,1.42
2022-08-09T20:53:36.347Z,1.30
2022-08-09T20:56:03.945Z,1.40
2022-08-09T20:58:32.859Z,1.40
2022-08-09T21:01:14.011Z,1.40
2022-08-09T21:04:08.107Z,1.25
2022-08-09T21:06:31.589Z,1.20
2022-08-09T21:08:57.217Z,1.30
2022-08-09T21:14:08.189Z,1.05
2022-08-09T21:16:34.769Z,1.00
2022-08-09T21:20:05.291Z,1.42
2022-08-09T21:21:56.240Z,1.45
2022-08-09T21:24:28.531Z,1.50
2022-08-09T21:26:54.901Z,1.27
2022-08-09T21:29:22.633Z,1.25
2022-08-09T21:31:49.839Z,1.10
2022-08-09T21:34:21.044Z,1.00
2022-08-09T21:36:55.629Z,1.15
2022-08-09T21:39:27.685Z,1.52
2022-08-09T21:42:05.854Z,1.30
2022-08-09T21:44:35.577Z,1.30
2022-08-09T21:47:04.171Z,1.10
2022-08-09T21:49:39.141Z,1.02
2022-08-09T21:52:07.109Z,1.13
2022-08-09T21:54:40.653Z,1.60
2022-08-09T21:57:06.191Z,1.20
2022-08-09T21:59:51.018Z,1.20
2022-08-09T22:02:36.038Z,1.23
2022-08-09T22:05:08.677Z,1.38
2022-08-09T22:10:07.727Z,1.10
2022-08-09T22:12:34.140Z,1.25
2022-08-09T22:14:59.836Z,1.05
2022-08-09T22:17:26.551Z,1.25
2022-08-09T22:19:58.353Z,1.10
2022-08-09T22:22:26.002Z,1.45
2022-08-09T22:26:04.074Z,1.23
2022-08-09T22:27:37.086Z,1.40
2022-08-09T22:30:03.386Z,1.08
2022-08-09T22:32:29.845Z,1.20
2022-08-09T22:35:02.421Z,1.20
2022-08-09T22:37:35.813Z,1.30
2022-08-09T22:40:06.514Z,1.20
2022-08-09T22:42:33.138Z,1.05
2022-08-09T22:48:10.170Z,1.10
2022-08-09T22:48:13.477Z,1.10
2022-08-09T22:50:31.927Z,1.38
2022-08-09T22:52:58.754Z,1.15
2022-08-09T22:55:33.667Z,1.50
2022-08-09T22:58:05.862Z,1.00
2022-08-09T23:00:31.493Z,1.17
2022-08-09T23:02:57.018Z,0.80
2022-08-09T23:05:24.215Z,1.20
2022-08-09T23:08:22.330Z,0.80
2022-08-09T23:10:55.003Z,1.25
2022-08-09T23:13:20.574Z,0.95
2022-08-09T23:16:03.010Z,1.10
2022-08-09T23:18:29.406Z,1.23
2022-08-09T23:20:55.021Z,0.90
2022-08-09T23:23:20.580Z,1.02
2022-08-09T23:25:46.068Z,1.10
2022-08-09T23:28:15.728Z,0.85
2022-08-09T23:30:51.136Z,0.90
2022-08-09T23:33:17.929Z,1.10
2022-08-09T23:36:07.018Z,0.95
2022-08-09T23:38:28.846Z,1.00
2022-08-09T23:40:55.522Z,0.93
2022-08-09T23:43:21.096Z,1.17
2022-08-09T23:45:46.999Z,0.88
2022-08-09T23:48:12.752Z,1.50
2022-08-09T23:50:38.224Z,1.15
2022-08-09T23:53:03.737Z,0.90
2022-08-09T23:55:30.912Z,1.17
2022-08-09T23:58:09.473Z,0.90
